• Join FlightAware (Why Join?)
  • Login
  • US Flag 
Trick or treat! (Boo!!) 
04:48AM EDT


 

Airport Tracker/Info


-or-


 

Live Flight TrackerFlight Track Log ✈ SWA1075 ✈ 14-May-2013 ✈ KAUS - KMCO

Flight Track Log - Related Links

Times and Time Zones

All times are in EDT time to prevent confusion due to time zone crossing. See the SWA1075 flight status page for this flight to view local times or setup timezone preferences in your user account.

Time Position Orientation Groundspeed Altitude Reporting Facility
EDT Latitude Longitude Course Direction KTS MPH feet Rate Location/Type
12:28PM 30.0642 -97.6072 99° East 237 273 6,100  Level Houston Center
12:29PM 30.0372 -97.5433 116° Southeast 288 331 8,300 2,220 Climbing Houston Center
12:30PM 30.0903 -97.4644 52° Northeast 300 345 10,700 2,040 Climbing Houston Center
12:32PM 30.1494 -97.3772 52° Northeast 333 383 12,600 2,040 Climbing Houston Center
12:33PM 30.3333 -96.9278 90° East  Level FlightAware Approximate
12:33PM 30.1703 -97.2492 79° East 365 420 15,000  Level Houston Center
12:34PM 30.3312 -96.7854 99° East  Level FlightAware Approximate
12:34PM 30.1564 -97.1322 98° East 365 420 17,800  Level Houston Center
12:35PM 30.1433 -97.0108 97° East 376 433 19,300 1,680 Climbing Houston Center
12:36PM 30.1289 -96.8825 97° East 395 455 21,300 1,740 Climbing Houston Center
12:37PM 30.1136 -96.7517 98° East 407 468 22,900 1,500 Climbing Houston Center
12:38PM 30.0981 -96.6183 98° East 426 490 24,400 1,440 Climbing Houston Center
12:39PM 30.0819 -96.4797 98° East 433 498 25,900 1,560 Climbing Houston Center
12:40PM 30.0625 -96.3081 97° East 447 514 27,700 1,500 Climbing Houston Center
12:41PM 30.0450 -96.1664 98° East 446 513 29,000 1,080 Climbing Houston Center
12:42PM 30.0278 -96.0197 98° East 457 526 30,000 780 Climbing Houston Center
12:43PM 30.0100 -95.8753 98° East 472 543 30,700 960 Climbing Houston Center
12:44PM 29.9914 -95.7217 98° East 481 554 32,000 1,080 Climbing Houston Center
12:45PM 29.9728 -95.5689 98° East 482 555 33,000 1,080 Climbing Houston Center
12:46PM 29.9497 -95.3819 98° East 487 560 34,300 960 Climbing Houston Center
12:47PM 29.9317 -95.2253 98° East 489 563 35,000 300 Climbing Houston Center
12:48PM 29.9106 -95.0647 99° East 498 573 35,000  Level Houston Center
12:49PM 29.8903 -94.9044 98° East 500 575 35,000  Level Houston Center
12:50PM 29.8689 -94.7458 99° East 499 574 35,000  Level Houston Center
12:51PM 29.8478 -94.5878 99° East 499 574 35,000  Level Houston Center
12:52PM 29.8269 -94.4297 99° East 498 573 35,000  Level Houston Center
12:53PM 29.8053 -94.2739 99° East 495 570 35,000  Level Houston Center
12:54PM 29.7789 -94.0792 99° East 499 574 35,000  Level Houston Center
12:55PM 29.7569 -93.9233 99° East 497 572 35,000  Level Houston Center
12:56PM 29.7292 -93.7692 102° East 496 571 35,000  Level Houston Center
12:57PM 29.7006 -93.6147 102° East 497 572 35,000  Level Houston Center
12:58PM 29.6714 -93.4633 102° East 491 565 35,000  Level Houston Center
12:59PM 29.6436 -93.3092 102° East 494 568 35,000  Level Houston Center
01:00PM 29.6094 -93.1239 102° East 497 572 35,000  Level Houston Center
01:01PM 29.5808 -92.9700 102° East 495 570 35,000  Level Houston Center
01:02PM 29.5517 -92.8169 102° East 494 568 35,000  Level Houston Center
01:04PM 29.5228 -92.6636 102° East 493 567 35,000  Level Houston Center
01:05PM 29.4936 -92.5136 103° East 486 559 35,000  Level Houston Center
01:06PM 29.4647 -92.3600 102° East 493 567 35,000  Level Houston Center
01:07PM 29.4286 -92.1792 103° East 488 562 35,000  Level Houston Center
01:08PM 29.4000 -92.0275 102° East 488 562 35,000  Level Houston Center
01:09PM 29.3697 -91.8767 103° East 487 560 35,000  Level Houston Center
01:10PM 29.3408 -91.7258 102° East 487 560 35,000  Level Houston Center
01:11PM 29.3069 -91.5544 103° East 489 563 35,000  Level Houston Center
01:12PM 29.2769 -91.4036 103° East 488 562 35,000  Level Houston Center
01:13PM 29.2461 -91.2531 103° East 489 563 35,000  Level Houston Center
01:14PM 29.2156 -91.1019 103° East 489 563 35,000  Level Houston Center
01:15PM 29.1847 -90.9522 103° East 487 560 35,000  Level Houston Center
01:16PM 29.1536 -90.8022 103° East 488 562 35,000  Level Houston Center
01:17PM 29.1158 -90.6208 103° East 489 563 35,000  Level Houston Center
01:18PM 29.0844 -90.4694 103° East 492 566 35,000  Level Houston Center
01:19PM 29.0528 -90.3197 104° East 490 564 35,000  Level Houston Center
01:20PM 29.0208 -90.1686 104° East 490 564 35,000  Level Houston Center
01:21PM 28.9900 -90.0161 103° East 494 568 35,000  Level Houston Center
01:22PM 28.9569 -89.8664 104° East 491 565 35,000  Level Houston Center
01:23PM 28.9183 -89.6842 104° East 493 567 35,000  Level Houston Center
01:24PM 28.8850 -89.5347 104° East 490 564 35,000  Level Houston Center
01:25PM 28.8525 -89.3844 104° East 490 564 35,000  Level Houston Center
01:26PM 28.8206 -89.2278 103° East 494 568 35,000  Level Houston Center
01:27PM 28.7869 -89.0767 104° East 497 572 35,000  Level Houston Center
01:28PM 28.7536 -88.9244 104° East 497 572 35,000  Level Houston Center
01:29PM 28.7203 -88.7725 104° East 496 571 35,000  Level Houston Center
01:30PM 28.6797 -88.5903 104° East 496 571 35,000  Level Houston Center
01:31PM 28.6453 -88.4381 104° East 497 572 35,000  Level Houston Center
01:32PM 28.6106 -88.2853 104° East 498 573 35,000  Level Houston Center
01:33PM 28.5756 -88.1336 105° East 498 573 35,000  Level Houston Center
01:34PM 28.5397 -87.9786 105° East 500 575 35,000  Level Houston Center
01:35PM 28.5047 -87.8242 104° East 503 579 35,000  Level Houston Center
01:36PM 28.4614 -87.6394 105° East 506 582 35,000  Level Houston Center
01:37PM 28.4264 -87.4872 105° East 503 579 35,000  Level Houston Center
01:39PM 28.3883 -87.3328 106° East 501 577 35,000  Level Jacksonville Center
01:40PM 28.3558 -87.1828 104° East 501 577 35,000  Level Jacksonville Center
01:41PM 28.3192 -87.0303 105° East 501 577 35,000 -60 Level Jacksonville Center
01:42PM 28.2844 -86.8781 104° East 501 577 34,900  Descending Jacksonville Center
01:43PM 28.2453 -86.7186 106° East 511 588 35,000  Climbing Jacksonville Center
01:44PM 28.2042 -86.5617 107° East 506 582 35,000  Level Jacksonville Center
01:45PM 28.1708 -86.4100 104° East 500 575 35,000  Level Jacksonville Center
01:46PM 28.1331 -86.2581 106° East 500 575 35,000  Level Jacksonville Center
01:47PM 28.0972 -86.1061 105° East 505 581 35,000  Level Jacksonville Center
01:48PM 28.0572 -85.9497 106° East 500 575 35,000  Level Jacksonville Center
01:49PM 28.0192 -85.7983 106° East 506 582 35,000  Level Jacksonville Center
01:51PM 27.9181 -85.3872 105° East 513 590 35,000  Level Miami Center
01:52PM 27.8792 -85.2319 106° East 513 590 35,000  Level Miami Center
01:53PM 27.8592 -85.0733 98° East 500 575 35,000  Level Miami Center
01:54PM 27.8361 -84.9286 100° East 509 586 35,000  Level Miami Center
01:55PM 27.8219 -84.7731 96° East 509 586 35,000  Level Miami Center
01:56PM 27.8283 -84.6139 87° East 503 579 35,000  Level Miami Center
01:57PM 27.8219 -84.4611 93° East 503 579 35,000  Level Miami Center
01:58PM 27.8239 -84.3042 89° East 498 573 35,000  Level Miami Center
01:59PM 27.8300 -84.1453 87° East 498 573 35,000 -240 Level Miami Center
02:00PM 27.8275 -83.9878 91° East 498 573 34,600 -1,200 Descending Miami Center
02:01PM 27.8333 -83.8264 88° East 498 573 32,700 -2,580 Descending Miami Center
02:02PM 27.8286 -83.6642 92° East 498 573 29,500 -3,000 Descending Miami Center
02:03PM 27.8253 -83.5117 91° East 498 573 26,800 -2,640 Descending Miami Center
02:04PM 27.8297 -83.3711 88° East 476 548 24,300 -1,920 Descending Miami Center
02:05PM 27.8292 -83.2397 90° East 443 510 23,000 -660 Descending Miami Center
02:06PM 27.8267 -83.1106 91° East 419 482 23,000  Level Miami Center
02:07PM 27.8303 -82.9794 88° East 414 476 23,000  Level Miami Center
02:08PM 27.8258 -82.8361 92° East 414 476 23,000  Level Miami Center
02:09PM 27.8250 -82.7047 90° East 414 476 23,000  Level Miami Center
02:10PM 27.8258 -82.5756 90° East 414 476 23,000 -300 Level Miami Center
02:11PM 27.8497 -82.4500 78° East 407 468 22,500 -1,260 Descending Miami Center
02:12PM 27.8833 -82.3344 72° East 394 453 20,500 -1,980 Descending Miami Center
02:13PM 27.9186 -82.2258 70° East 380 437 18,600 -1,980 Descending Miami Center
02:15PM 27.9833 -82.0500 67° East 355 409 15,300 -1,980 Descending Orlando TRACON
02:16PM 28.0167 -81.9500 69° East 348 400 13,400 -1,200 Descending Orlando TRACON
02:17PM 28.0667 -81.8500 60° Northeast 306 352 13,000 -720 Descending Orlando TRACON
02:18PM 28.0833 -81.7667 77° East 302 348 12,000 -960 Descending Orlando TRACON
02:19PM 28.1000 -81.6667 79° East 309 356 11,100 -960 Descending Orlando TRACON
02:20PM 28.1167 -81.5833 77° East 298 343 10,200 -1,020 Descending Orlando TRACON
02:21PM 28.1333 -81.5000 77° East 297 342 9,200 -1,500 Descending Orlando TRACON
02:22PM 28.2000 -81.4500 33° Northeast 263 303 7,300 -1,260 Descending Orlando TRACON
02:23PM 28.2500 -81.4000 41° Northeast 184 212 6,700 -1,260 Descending Orlando TRACON
02:24PM 28.2833 -81.3667 41° Northeast 169 194 4,800 -2,100 Descending Orlando TRACON
02:25PM 28.3167 -81.3333 41° Northeast 167 192 2,600 -1,920 Descending Orlando TRACON
02:26PM 28.3667 -81.3167 16° North 162 186 1,000 -1,140 Descending Orlando TRACON
02:27PM 28.4000 -81.3167 360° North 143 165 400 -600 Descending Orlando TRACON
02:29PM 28.4294 -81.3090 North  Level Estimated